Airfield :
LOGIN :

Register | Disclaimer

   EN    FR    IT 

 










Legend :    VFR   Marginal VFR   IFR   Intensive IFR   Very Intensive IFR
Visi :
Ceiling :
>= 8 km
>= 3000ft
5 to 8 km
1000 to 3000 ft
1500m to 5 km
500 to 1000 ft
800 to 1500m
200 to 500 ft
< 800m
< 200 ft
Symbols :   Thunderstorms  Fog  Heavy snow  Heavy precipitations  Wind > 20 kt
SIGMETs :     Misc.  Thunderstorms  Icing  Turbulence  Mountain Waves  Volcanic Ashes






- Airport Elevation : 106 ft
- IATA code : XDA


LFBY - Dax Seyresse

CURRENT METAR :
  • 281130Z AUTO 27013G25KT 230V300 9999 // ////// 12/09 Q1020

EXPIRED METARs :
  • 281100Z AUTO 30012KT 270V350 5000 // ////// 12/10 Q1020
  • 281030Z AUTO 26009KT 230V290 9999 // ////// 14/11 Q1020
  • 281000Z AUTO 24005KT 200V270 9999 // ////// 13/11 Q1020
  • 280930Z AUTO 22004KT 180V260 9999 // ////// 12/10 Q1020
  • 280900Z AUTO 24005KT 210V300 9999 // ////// 10/08 Q1020

Expired Forecast.



MET'MAP, your aeronautical weather chart ! - Copyright ORBIFLY December 2007 - Disclaimer

ORBIFLY MET'MAP TEAM :

Programming & Development : Alexandra Zaïnal
Original concept : Baudouin d'Aumeries
Technical & hardware support : Manuel Goepfert
Assistance : Marc-Olivier Méhu




SOURCES & CREDITS :

   NOAA